Time;durP1;ratioP1;P1;durP2;ratioP2;P2;SDS_P1;SDS_P2;PMS_P1;PMS_P2;Temp;Humidity;BMP_temperature;BMP_pressure;BME280_temperature;BME280_humidity;BME280_pressure;Samples;Min_cycle;Max_cycle;Signal;HPM_P1;HPM_P2
2022/06/02 00:00:13;;;;;;;0.60;0.10;;;16.30;99.90;;;;;;5015084;28;20444;-69
2022/06/02 00:03:04;;;;;;;0.60;0.10;;;16.30;99.90;;;;;;5030077;28;20509;-71
2022/06/02 00:05:50;;;;;;;0.60;0.20;;;;;;;;;;5029064;28;20482;-69
2022/06/02 00:08:29;;;;;;;0.60;0.10;;;16.20;99.90;;;;;;5039959;28;20451;-70
2022/06/02 00:11:06;;;;;;;0.60;0.17;;;16.20;99.90;;;;;;5036360;28;20446;-70
2022/06/02 00:13:42;;;;;;;0.60;0.10;;;16.10;99.90;;;;;;5033708;28;20439;-69
2022/06/02 00:16:14;;;;;;;0.60;0.20;;;16.00;99.90;;;;;;5033409;28;20471;-68
2022/06/02 00:18:50;;;;;;;0.60;0.20;;;15.90;99.90;;;;;;5033685;28;20462;-71
2022/06/02 00:21:29;;;;;;;0.60;0.10;;;15.90;99.90;;;;;;5033410;28;20453;-70
2022/06/02 00:24:07;;;;;;;0.60;0.10;;;15.80;99.90;;;;;;5033202;28;20936;-70
2022/06/02 00:26:45;;;;;;;0.60;0.20;;;15.90;99.90;;;;;;5032913;28;21056;-71
2022/06/02 00:29:21;;;;;;;0.60;0.20;;;15.80;99.90;;;;;;5033521;28;20529;-70
2022/06/02 00:31:56;;;;;;;0.60;0.10;;;15.80;99.90;;;;;;5017802;28;20451;-71
2022/06/02 00:34:34;;;;;;;0.60;0.10;;;15.80;99.90;;;;;;5013113;28;20548;-70
2022/06/02 00:37:19;;;;;;;0.60;0.10;;;15.80;99.90;;;;;;5013239;28;20516;-70
2022/06/02 00:39:49;;;;;;;0.60;0.10;;;15.70;99.90;;;;;;5013478;28;20453;-70
2022/06/02 00:42:37;;;;;;;0.60;0.10;;;15.70;99.90;;;;;;5030719;28;20478;-70
2022/06/02 00:45:08;;;;;;;0.60;0.10;;;15.70;99.90;;;;;;5032404;28;20434;-70
2022/06/02 00:47:50;;;;;;;0.60;0.10;;;15.70;99.90;;;;;;5025206;28;20590;-69
2022/06/02 00:50:43;;;;;;;0.60;0.10;;;15.70;99.90;;;;;;5014243;28;20445;-70
2022/06/02 00:53:15;;;;;;;0.60;0.20;;;15.70;99.90;;;;;;5031754;28;20514;-70
2022/06/02 00:58:58;;;;;;;0.60;0.10;;;15.70;99.90;;;;;;5032818;28;20450;-69
2022/06/02 01:01:28;;;;;;;0.60;0.10;;;15.70;99.90;;;;;;5022006;28;20458;-70
2022/06/02 01:03:59;;;;;;;0.60;0.10;;;15.60;99.90;;;;;;5012780;28;20490;-69
2022/06/02 01:06:50;;;;;;;0.60;0.10;;;15.60;99.90;;;;;;5012450;28;20460;-70
2022/06/02 01:09:48;;;;;;;0.60;0.10;;;15.60;99.90;;;;;;5013096;28;20447;-69
2022/06/02 01:12:42;;;;;;;0.60;0.13;;;15.50;99.90;;;;;;5029449;28;20446;-69
2022/06/02 01:15:19;;;;;;;0.60;0.10;;;15.50;99.90;;;;;;5032131;28;20774;-70
2022/06/02 01:18:04;;;;;;;0.60;0.10;;;14.80;99.90;;;;;;5031959;28;20459;-69
2022/06/02 01:20:43;;;;;;;0.60;0.10;;;15.30;99.90;;;;;;5029639;28;21999;-69
2022/06/02 01:23:48;;;;;;;0.60;0.10;;;15.30;99.90;;;;;;5012603;28;20571;-69
2022/06/02 01:26:47;;;;;;;0.60;0.10;;;15.30;99.90;;;;;;5012669;28;20475;-70
2022/06/02 01:29:39;;;;;;;0.60;0.20;;;15.30;99.90;;;;;;5031361;28;20451;-68
2022/06/02 01:32:10;;;;;;;0.60;0.10;;;15.30;99.90;;;;;;5010650;28;20452;-68
2022/06/02 01:34:55;;;;;;;0.60;0.10;;;15.30;99.90;;;;;;5011768;28;20449;-68
2022/06/02 01:37:31;;;;;;;0.60;0.10;;;15.20;99.90;;;;;;5010871;28;20467;-69
2022/06/02 01:40:12;;;;;;;0.60;0.10;;;15.20;99.90;;;;;;5021133;28;20447;-70
2022/06/02 01:42:55;;;;;;;0.60;0.10;;;15.20;99.90;;;;;;5032058;28;20810;-70
2022/06/02 01:45:38;;;;;;;0.60;0.10;;;15.20;99.90;;;;;;5032349;28;20946;-70
2022/06/02 01:48:17;;;;;;;0.60;0.10;;;15.10;99.90;;;;;;5032601;28;20480;-69
2022/06/02 01:50:56;;;;;;;0.60;0.10;;;15.10;99.90;;;;;;5031961;28;20454;-68
2022/06/02 01:53:35;;;;;;;0.60;0.10;;;15.00;99.90;;;;;;5032132;28;20457;-69
2022/06/02 01:56:17;;;;;;;0.60;0.10;;;15.00;99.90;;;;;;5032248;28;20467;-69
2022/06/02 01:58:59;;;;;;;0.60;0.10;;;15.00;99.90;;;;;;5031398;28;20461;-68
2022/06/02 02:01:38;;;;;;;0.60;0.20;;;15.00;99.90;;;;;;5031394;28;20461;-70
2022/06/02 02:04:24;;;;;;;0.60;0.10;;;14.90;99.90;;;;;;5031494;28;20507;-70
2022/06/02 02:07:03;;;;;;;0.60;0.20;;;14.90;99.90;;;;;;5031456;28;20481;-69
2022/06/02 02:09:43;;;;;;;0.60;0.10;;;14.80;99.90;;;;;;5031735;28;20452;-69
2022/06/02 02:12:19;;;;;;;0.60;0.20;;;14.80;99.90;;;;;;5032053;28;20453;-68
2022/06/02 02:15:12;;;;;;;0.60;0.10;;;14.80;99.90;;;;;;5032004;28;20435;-69
2022/06/02 02:17:57;;;;;;;0.60;0.10;;;14.70;99.90;;;;;;5031385;28;20474;-70
2022/06/02 02:20:36;;;;;;;0.60;0.20;;;14.70;99.90;;;;;;5032016;28;20458;-69
2022/06/02 02:23:10;;;;;;;0.60;0.10;;;14.70;99.90;;;;;;5031267;28;20477;-69
2022/06/02 02:25:42;;;;;;;0.60;0.10;;;;;;;;;;5031014;28;20447;-66
2022/06/02 02:28:17;;;;;;;0.60;0.10;;;14.60;99.90;;;;;;5014647;28;20730;-68
2022/06/02 02:31:01;;;;;;;0.60;0.10;;;14.70;99.90;;;;;;5030198;28;20930;-67
2022/06/02 02:33:39;;;;;;;0.60;0.20;;;14.70;99.90;;;;;;5031206;28;20799;-68
2022/06/02 02:36:17;;;;;;;0.60;0.10;;;14.70;99.90;;;;;;5031700;28;20576;-69
2022/06/02 02:38:54;;;;;;;0.60;0.20;;;14.60;99.90;;;;;;5031857;28;20451;-68
2022/06/02 02:41:28;;;;;;;0.60;0.10;;;14.60;99.90;;;;;;5012872;28;20448;-71
2022/06/02 02:44:03;;;;;;;0.60;0.10;;;14.60;99.90;;;;;;5011678;28;20490;-67
2022/06/02 02:46:38;;;;;;;0.60;0.10;;;14.50;99.90;;;;;;5011221;28;20475;-70
2022/06/02 02:49:15;;;;;;;0.60;0.10;;;14.50;99.90;;;;;;5016205;28;20454;-70
2022/06/02 02:51:52;;;;;;;0.60;0.10;;;14.50;99.90;;;;;;5031532;28;20457;-69
2022/06/02 02:54:29;;;;;;;0.60;0.10;;;14.50;99.90;;;;;;5031419;28;20456;-70
2022/06/02 02:57:04;;;;;;;0.60;0.10;;;14.50;99.90;;;;;;5030774;28;20465;-70
2022/06/02 02:59:42;;;;;;;0.60;0.10;;;14.50;99.90;;;;;;5030849;28;20457;-70
2022/06/02 03:02:18;;;;;;;0.60;0.10;;;14.50;99.90;;;;;;5031023;28;20947;-70
2022/06/02 03:04:56;;;;;;;0.60;0.10;;;14.50;99.90;;;;;;5031303;28;20486;-70
2022/06/02 03:07:26;;;;;;;0.60;0.10;;;14.50;99.90;;;;;;5030656;28;20470;-66
2022/06/02 03:10:04;;;;;;;0.60;0.10;;;14.50;99.90;;;;;;5032178;28;20487;-70
2022/06/02 03:12:50;;;;;;;0.60;0.10;;;14.40;99.90;;;;;;5035234;28;20450;-69
2022/06/02 03:15:24;;;;;;;0.60;0.10;;;14.50;99.90;;;;;;5035368;28;20438;-67
2022/06/02 03:18:15;;;;;;;0.60;0.10;;;14.40;99.90;;;;;;5036316;28;20489;-69
2022/06/02 03:20:53;;;;;;;0.60;0.13;;;14.40;99.90;;;;;;5017508;28;20646;-68
2022/06/02 03:23:47;;;;;;;0.60;0.10;;;14.40;99.90;;;;;;5037680;28;20507;-68
2022/06/02 03:26:24;;;;;;;0.60;0.10;;;14.40;99.90;;;;;;5035764;28;20478;-69
2022/06/02 03:29:01;;;;;;;0.60;0.10;;;14.40;99.90;;;;;;5027644;28;20450;-68
2022/06/02 03:31:37;;;;;;;0.60;0.10;;;14.30;99.90;;;;;;5036942;28;20453;-71
2022/06/02 03:34:17;;;;;;;0.60;0.10;;;14.30;99.90;;;;;;5038813;28;20447;-67
2022/06/02 03:37:14;;;;;;;0.60;0.20;;;14.40;99.90;;;;;;5046813;28;20538;-68
2022/06/02 03:39:55;;;;;;;0.60;0.10;;;14.30;99.90;;;;;;5044274;28;20481;-69
2022/06/02 03:42:31;;;;;;;0.60;0.10;;;14.30;99.90;;;;;;5020684;28;20447;-68
2022/06/02 03:45:11;;;;;;;0.60;0.10;;;14.30;99.90;;;;;;5016959;28;20464;-68
2022/06/02 03:47:54;;;;;;;0.60;0.20;;;14.30;99.90;;;;;;5034157;28;20505;-68
2022/06/02 03:50:42;;;;;;;0.60;0.10;;;14.30;99.90;;;;;;5038180;28;20530;-68
2022/06/02 03:53:17;;;;;;;0.60;0.10;;;;;;;;;;5039664;28;20537;-69
2022/06/02 03:55:59;;;;;;;0.60;0.10;;;14.30;99.90;;;;;;5038226;28;20457;-68
2022/06/02 03:58:43;;;;;;;0.60;0.10;;;14.30;99.90;;;;;;5017524;28;20549;-69
2022/06/02 04:01:18;;;;;;;0.60;0.10;;;14.30;99.90;;;;;;5019119;28;20483;-68
2022/06/02 04:04:12;;;;;;;0.60;0.10;;;14.20;99.90;;;;;;5021521;28;20479;-68
2022/06/02 04:06:56;;;;;;;0.60;0.10;;;14.10;99.90;;;;;;5029772;28;20556;-69
2022/06/02 04:09:34;;;;;;;0.60;0.10;;;14.10;99.90;;;;;;5041227;28;20454;-69
2022/06/02 04:15:24;;;;;;;0.60;0.10;;;14.20;99.90;;;;;;5042884;28;20513;-69
2022/06/02 04:17:59;;;;;;;0.60;0.10;;;14.20;99.90;;;;;;5032072;28;20470;-67
2022/06/02 04:20:48;;;;;;;0.60;0.13;;;14.20;99.90;;;;;;5027448;28;20526;-68
2022/06/02 04:23:39;;;;;;;0.60;0.10;;;14.20;99.90;;;;;;5020661;28;20436;-68
2022/06/02 04:26:20;;;;;;;0.60;0.10;;;14.20;99.90;;;;;;5017425;28;20837;-68
2022/06/02 04:28:55;;;;;;;0.60;0.10;;;14.20;99.90;;;;;;5019533;28;20528;-68
2022/06/02 04:31:37;;;;;;;0.60;0.10;;;14.20;99.90;;;;;;5030105;28;20465;-69
2022/06/02 04:34:16;;;;;;;0.60;0.20;;;14.30;99.90;;;;;;5027767;28;20569;-67
2022/06/02 04:36:53;;;;;;;0.60;0.10;;;14.30;99.90;;;;;;5033001;28;20477;-68
2022/06/02 04:39:27;;;;;;;0.60;0.10;;;17.10;99.90;;;;;;5030333;28;20480;-68
2022/06/02 04:42:06;;;;;;;0.60;0.10;;;14.20;99.90;;;;;;5030809;28;20457;-67
2022/06/02 04:44:41;;;;;;;0.60;0.10;;;14.20;99.90;;;;;;5032883;28;20478;-68
2022/06/02 04:47:23;;;;;;;0.60;0.10;;;14.30;99.90;;;;;;5028656;28;20475;-67
2022/06/02 04:49:58;;;;;;;0.60;0.10;;;14.20;99.90;;;;;;5035949;28;20450;-69
2022/06/02 04:52:32;;;;;;;0.60;0.10;;;14.20;99.90;;;;;;5031283;28;20454;-70
2022/06/02 04:55:11;;;;;;;0.60;0.10;;;14.20;99.90;;;;;;5033340;28;20470;-70
2022/06/02 04:57:49;;;;;;;0.60;0.10;;;14.20;99.90;;;;;;5029256;28;20484;-69
2022/06/02 05:00:24;;;;;;;0.60;0.10;;;14.40;99.90;;;;;;5018114;28;20444;-68
2022/06/02 05:02:58;;;;;;;0.60;0.10;;;14.40;99.90;;;;;;5020185;28;20461;-70
2022/06/02 05:05:35;;;;;;;0.60;0.10;;;14.40;99.90;;;;;;5019603;28;20499;-69
2022/06/02 05:08:38;;;;;;;0.60;0.10;;;14.40;99.90;;;;;;5019421;28;20598;-69
2022/06/02 05:11:16;;;;;;;0.60;0.10;;;14.50;99.90;;;;;;5019784;28;20454;-70
2022/06/02 05:13:56;;;;;;;0.60;0.10;;;14.50;99.90;;;;;;5017373;28;20455;-70
2022/06/02 05:16:32;;;;;;;0.60;0.10;;;14.60;99.90;;;;;;5022496;28;20469;-69
2022/06/02 05:19:30;;;;;;;0.60;0.20;;;14.60;99.90;;;;;;5035612;28;20470;-70
2022/06/02 05:22:50;;;;;;;0.60;0.10;;;14.70;99.90;;;;;;5029465;28;20453;-69
2022/06/02 05:25:45;;;;;;;0.60;0.17;;;14.80;99.90;;;;;;5001837;28;20481;-68
2022/06/02 05:29:01;;;;;;;0.60;0.10;;;14.80;99.90;;;;;;5015977;28;20462;-68
2022/06/02 05:32:10;;;;;;;12.40;3.70;;;14.80;99.90;;;;;;5013247;28;20453;-68
2022/06/02 05:35:04;;;;;;;0.60;0.17;;;14.90;99.90;;;;;;5011585;28;20436;-67
2022/06/02 05:37:46;;;;;;;0.60;0.10;;;14.90;99.90;;;;;;5018404;28;20569;-68
2022/06/02 05:40:21;;;;;;;0.60;0.10;;;15.00;99.90;;;;;;5027718;28;21197;-71
2022/06/02 05:43:02;;;;;;;0.60;0.10;;;15.00;99.90;;;;;;5013283;28;20494;-68
2022/06/02 05:45:51;;;;;;;0.60;0.10;;;15.00;99.90;;;;;;5027948;28;20890;-69
2022/06/02 05:48:38;;;;;;;0.60;0.10;;;15.00;99.90;;;;;;5024197;28;20437;-67
2022/06/02 05:51:15;;;;;;;0.60;0.10;;;15.10;99.90;;;;;;5011068;28;21013;-68
2022/06/02 05:53:56;;;;;;;0.60;0.10;;;15.10;99.90;;;;;;5012899;28;20456;-69
2022/06/02 05:56:35;;;;;;;0.60;0.10;;;15.20;99.90;;;;;;5017676;28;20470;-68
2022/06/02 05:59:24;;;;;;;0.60;0.10;;;15.20;99.90;;;;;;5018386;28;20753;-69
2022/06/02 06:02:08;;;;;;;0.60;0.10;;;15.30;99.90;;;;;;5020375;28;20456;-70
2022/06/02 06:05:03;;;;;;;0.60;0.10;;;15.40;99.90;;;;;;5017666;28;20447;-68
2022/06/02 06:07:49;;;;;;;0.60;0.10;;;15.40;99.90;;;;;;5017697;28;20490;-67
2022/06/02 06:10:22;;;;;;;0.60;0.10;;;15.40;99.90;;;;;;5016472;28;20878;-68
2022/06/02 06:13:07;;;;;;;0.60;0.10;;;15.40;99.90;;;;;;5022454;28;20478;-69
2022/06/02 06:15:48;;;;;;;0.60;0.10;;;15.40;99.90;;;;;;5025769;28;20463;-69
2022/06/02 06:18:32;;;;;;;0.60;0.10;;;15.50;99.90;;;;;;5020961;28;20454;-67
2022/06/02 06:21:20;;;;;;;0.60;0.10;;;15.50;99.90;;;;;;5024222;28;20442;-68
2022/06/02 06:24:08;;;;;;;0.60;0.10;;;15.60;99.90;;;;;;5010831;28;20445;-68
2022/06/02 06:26:46;;;;;;;0.60;0.10;;;15.70;99.90;;;;;;5018328;28;20504;-68
2022/06/02 06:29:32;;;;;;;0.60;0.10;;;15.70;99.90;;;;;;5018100;28;20464;-69
2022/06/02 06:32:09;;;;;;;0.60;0.10;;;15.70;99.90;;;;;;5020895;28;20453;-68
2022/06/02 06:34:46;;;;;;;0.60;0.10;;;15.80;99.90;;;;;;5016059;28;20444;-67
2022/06/02 06:37:38;;;;;;;0.60;0.10;;;15.90;99.90;;;;;;5015312;28;20840;-68
2022/06/02 06:40:23;;;;;;;0.60;0.10;;;15.90;99.90;;;;;;5011295;28;20461;-68
2022/06/02 06:43:01;;;;;;;0.60;0.10;;;16.00;99.90;;;;;;5017916;28;20491;-68
2022/06/02 06:45:37;;;;;;;0.60;0.20;;;16.00;99.90;;;;;;5011890;28;20586;-66
2022/06/02 06:48:14;;;;;;;0.60;0.20;;;16.00;99.90;;;;;;5014626;28;20492;-69
2022/06/02 06:50:51;;;;;;;0.60;0.20;;;16.00;99.90;;;;;;5022313;28;20497;-68
2022/06/02 06:53:39;;;;;;;0.60;0.20;;;16.10;99.90;;;;;;5020219;28;20466;-73
2022/06/02 06:56:30;;;;;;;0.70;0.40;;;16.20;99.90;;;;;;5019672;28;20830;-66
2022/06/02 06:59:17;;;;;;;0.60;0.13;;;16.20;99.90;;;;;;5013938;28;20445;-67
2022/06/02 07:01:52;;;;;;;0.60;0.10;;;16.20;99.90;;;;;;5012951;28;20535;-68
2022/06/02 07:04:33;;;;;;;0.60;0.10;;;16.20;99.90;;;;;;5020125;28;20443;-67
2022/06/02 07:07:08;;;;;;;0.60;0.10;;;16.30;99.90;;;;;;5012677;28;20479;-68
2022/06/02 07:09:46;;;;;;;0.60;0.10;;;16.40;99.90;;;;;;5027720;28;20518;-69
2022/06/02 07:15:15;;;;;;;0.60;0.10;;;16.40;99.90;;;;;;5023247;28;20500;-66
2022/06/02 07:17:51;;;;;;;0.60;0.10;;;16.50;99.90;;;;;;5031010;28;20455;-67
2022/06/02 07:20:39;;;;;;;0.60;0.10;;;16.50;99.90;;;;;;5024498;28;20507;-68
2022/06/02 07:23:14;;;;;;;0.60;0.20;;;16.60;99.90;;;;;;5025273;28;20500;-68
2022/06/02 07:25:54;;;;;;;0.60;0.13;;;16.70;99.90;;;;;;5012045;28;20493;-67
2022/06/02 07:28:36;;;;;;;1.10;0.63;;;16.70;99.90;;;;;;5017134;28;20443;-68
2022/06/02 07:31:21;;;;;;;0.60;0.10;;;16.70;99.90;;;;;;5023105;28;20657;-68
2022/06/02 07:33:58;;;;;;;0.60;0.13;;;16.60;99.90;;;;;;5013608;28;20467;-67
2022/06/02 07:36:57;;;;;;;0.60;0.10;;;16.70;99.90;;;;;;5017548;28;20474;-68
2022/06/02 07:39:56;;;;;;;0.60;0.10;;;16.70;99.90;;;;;;5026590;28;20536;-71
2022/06/02 07:42:57;;;;;;;0.60;0.10;;;16.70;99.90;;;;;;5019881;28;20786;-70
2022/06/02 07:45:40;;;;;;;0.60;0.10;;;16.80;99.90;;;;;;5028822;28;20446;-70
2022/06/02 07:48:22;;;;;;;0.60;0.10;;;16.70;99.90;;;;;;5022641;28;20470;-68
2022/06/02 07:51:01;;;;;;;0.60;0.10;;;16.80;99.90;;;;;;5022665;28;20494;-69
2022/06/02 07:53:40;;;;;;;0.60;0.30;;;16.90;99.90;;;;;;5024132;28;20452;-69
2022/06/02 07:56:17;;;;;;;0.60;0.10;;;17.00;99.90;;;;;;5022239;28;20613;-69
2022/06/02 07:58:58;;;;;;;0.60;0.10;;;17.00;99.90;;;;;;5015317;28;20446;-69
2022/06/02 08:01:50;;;;;;;0.60;0.10;;;17.00;99.90;;;;;;5030909;28;20439;-68
2022/06/02 08:04:28;;;;;;;0.60;0.10;;;17.10;99.90;;;;;;5022988;28;20448;-69
2022/06/02 08:07:04;;;;;;;0.60;0.10;;;17.20;99.90;;;;;;5021336;28;20794;-71
2022/06/02 08:09:44;;;;;;;0.70;0.30;;;17.30;99.90;;;;;;5032020;28;20470;-69
2022/06/02 08:12:22;;;;;;;0.60;0.20;;;17.20;99.90;;;;;;5020567;28;20534;-68
2022/06/02 08:15:14;;;;;;;0.60;0.10;;;17.20;99.90;;;;;;5014327;28;20469;-69
2022/06/02 08:17:51;;;;;;;0.60;0.20;;;17.20;99.90;;;;;;5029231;28;20459;-68
2022/06/02 08:20:46;;;;;;;0.60;0.13;;;17.30;99.90;;;;;;5024434;28;20526;-69
2022/06/02 08:23:59;;;;;;;0.60;0.10;;;17.30;99.90;;;;;;5031645;28;20462;-69
2022/06/02 08:26:39;;;;;;;1.57;0.97;;;17.50;99.90;;;;;;5008733;28;21065;-70
2022/06/02 08:29:30;;;;;;;0.60;0.10;;;17.50;99.90;;;;;;5015299;28;20482;-68
2022/06/02 08:32:32;;;;;;;0.80;0.63;;;17.40;99.90;;;;;;5020779;28;20442;-69
2022/06/02 08:35:11;;;;;;;0.60;0.10;;;17.30;99.90;;;;;;5014232;28;20454;-69
2022/06/02 08:37:52;;;;;;;0.60;0.10;;;17.30;99.90;;;;;;5029355;28;20467;-70
2022/06/02 08:41:28;;;;;;;0.60;0.20;;;17.30;99.90;;;;;;5019680;28;20452;-68
2022/06/02 08:44:26;;;;;;;0.60;0.10;;;17.30;99.90;;;;;;5022728;28;20577;-69
2022/06/02 08:47:28;;;;;;;0.97;0.83;;;17.50;99.90;;;;;;5026469;28;20490;-70
2022/06/02 08:50:24;;;;;;;0.60;0.13;;;17.60;99.90;;;;;;5013370;28;20452;-71
2022/06/02 08:53:38;;;;;;;0.80;0.47;;;17.70;99.90;;;;;;5019218;28;20506;-69
2022/06/02 08:56:42;;;;;;;0.60;0.20;;;17.70;99.90;;;;;;4933673;29;20478;-70
2022/06/02 08:59:48;;;;;;;0.60;0.13;;;17.70;99.90;;;;;;5027808;28;20622;-68
2022/06/02 09:02:38;;;;;;;0.60;0.20;;;17.70;99.90;;;;;;5021867;28;20453;-69
2022/06/02 09:05:36;;;;;;;0.67;0.27;;;17.70;99.90;;;;;;5028786;28;20466;-70
2022/06/02 09:08:21;;;;;;;0.60;0.10;;;17.80;99.90;;;;;;5020663;28;20585;-68
2022/06/02 09:11:09;;;;;;;0.60;0.10;;;17.80;99.90;;;;;;5021088;28;20949;-72
2022/06/02 09:13:53;;;;;;;0.60;0.10;;;;;;;;;;5024286;28;20465;-71
2022/06/02 09:16:23;;;;;;;0.60;0.10;;;18.00;99.90;;;;;;5023430;28;20460;-66
2022/06/02 09:19:29;;;;;;;0.70;0.30;;;18.00;99.90;;;;;;5025404;28;20444;-68
2022/06/02 09:22:30;;;;;;;0.60;0.13;;;18.10;99.90;;;;;;5019717;28;20458;-70
2022/06/02 09:25:08;;;;;;;0.60;0.20;;;18.20;99.90;;;;;;5020051;28;20471;-71
2022/06/02 09:28:09;;;;;;;0.60;0.13;;;18.30;99.90;;;;;;5015429;28;20570;-70
2022/06/02 09:30:54;;;;;;;0.60;0.10;;;18.40;99.90;;;;;;5019805;28;20451;-69
2022/06/02 09:33:49;;;;;;;0.60;0.10;;;18.50;99.90;;;;;;5026730;28;20454;-71
2022/06/02 09:36:43;;;;;;;0.60;0.10;;;16.90;99.90;;;;;;5025649;28;20683;-73
2022/06/02 09:39:38;;;;;;;0.60;0.10;;;18.60;99.90;;;;;;5027645;28;20514;-69
2022/06/02 09:42:23;;;;;;;0.60;0.20;;;18.80;99.90;;;;;;5019184;28;20456;-71
2022/06/02 09:45:02;;;;;;;0.60;0.10;;;18.80;99.90;;;;;;5012362;28;20458;-72
2022/06/02 09:48:00;;;;;;;0.93;0.57;;;18.80;99.90;;;;;;5011924;28;20490;-70
2022/06/02 09:50:45;;;;;;;0.60;0.13;;;18.80;99.90;;;;;;5011626;28;20455;-71
2022/06/02 09:53:48;;;;;;;0.60;0.10;;;18.70;99.90;;;;;;5031694;28;20443;-70
2022/06/02 09:56:35;;;;;;;0.60;0.10;;;18.80;99.90;;;;;;5024820;28;20483;-73
2022/06/02 09:59:11;;;;;;;0.60;0.10;;;18.80;99.90;;;;;;5031843;28;20534;-70
2022/06/02 10:01:56;;;;;;;0.60;0.10;;;18.90;99.90;;;;;;5029044;28;20463;-70
2022/06/02 10:04:48;;;;;;;0.60;0.10;;;19.00;99.90;;;;;;5020381;28;20522;-71
2022/06/02 10:07:41;;;;;;;0.60;0.10;;;19.00;99.90;;;;;;5015810;28;20480;-72
2022/06/02 10:10:40;;;;;;;0.90;0.30;;;19.10;99.90;;;;;;5013953;28;20956;-72
2022/06/02 10:13:31;;;;;;;0.60;0.20;;;19.10;99.90;;;;;;5024407;28;20458;-72
2022/06/02 10:16:25;;;;;;;0.60;0.20;;;19.30;99.90;;;;;;5030966;28;20444;-70
2022/06/02 10:19:25;;;;;;;0.60;0.10;;;19.30;99.90;;;;;;5027986;28;20462;-70
2022/06/02 10:22:00;;;;;;;0.60;0.20;;;19.40;99.90;;;;;;5025213;28;20829;-72
2022/06/02 10:24:59;;;;;;;0.60;0.10;;;19.40;99.90;;;;;;5031047;28;20447;-72
2022/06/02 10:28:07;;;;;;;0.70;0.20;;;19.50;99.90;;;;;;5017664;28;20828;-71
2022/06/02 10:31:20;;;;;;;0.70;0.10;;;19.60;99.90;;;;;;5018856;28;20511;-69
2022/06/02 10:34:39;;;;;;;0.60;0.20;;;19.50;99.90;;;;;;4985866;28;20849;-71
2022/06/02 10:37:24;;;;;;;0.60;0.10;;;19.50;99.90;;;;;;5027021;28;20562;-70
2022/06/02 10:40:09;;;;;;;0.60;0.20;;;19.40;99.90;;;;;;5032899;28;20446;-76
2022/06/02 10:43:01;;;;;;;0.60;0.20;;;19.40;99.90;;;;;;5039837;28;20446;-70
2022/06/02 10:46:21;;;;;;;0.60;0.10;;;18.70;99.90;;;;;;5019458;28;20459;-71
2022/06/02 10:49:13;;;;;;;0.70;0.20;;;19.60;99.90;;;;;;5003618;28;20479;-69
2022/06/02 10:52:14;;;;;;;0.70;0.10;;;19.80;99.90;;;;;;5016944;28;20496;-68
2022/06/02 10:55:19;;;;;;;0.60;0.10;;;19.80;99.90;;;;;;5023090;28;20459;-70
2022/06/02 10:58:24;;;;;;;0.60;0.20;;;20.00;99.90;;;;;;5026292;28;20543;-68
2022/06/02 11:01:22;;;;;;;0.80;0.37;;;20.00;99.90;;;;;;5019405;28;20535;-71
2022/06/02 11:04:25;;;;;;;0.70;0.20;;;20.10;99.90;;;;;;5017403;28;21003;-69
2022/06/02 11:07:23;;;;;;;0.60;0.10;;;20.20;99.90;;;;;;4997612;28;20489;-67
2022/06/02 11:10:27;;;;;;;0.60;0.10;;;20.20;99.90;;;;;;5022874;28;20501;-69
2022/06/02 11:13:27;;;;;;;0.60;0.10;;;20.20;99.90;;;;;;5025899;28;20514;-72
2022/06/02 11:16:32;;;;;;;0.70;0.20;;;20.30;99.90;;;;;;5005314;28;20435;-70
2022/06/02 11:19:31;;;;;;;0.70;0.20;;;20.30;99.90;;;;;;5027922;28;20565;-72
2022/06/02 11:22:25;;;;;;;0.70;0.20;;;20.40;99.90;;;;;;5021734;28;20446;-68
2022/06/02 11:25:49;;;;;;;0.70;0.10;;;20.50;99.90;;;;;;5011339;28;20447;-69
2022/06/02 11:28:59;;;;;;;0.70;0.20;;;20.60;99.90;;;;;;5024690;28;20850;-66
2022/06/02 11:32:09;;;;;;;0.70;0.20;;;20.70;99.90;;;;;;5023616;28;20453;-68
2022/06/02 11:35:11;;;;;;;0.70;0.13;;;20.70;99.90;;;;;;4984279;28;20519;-69
2022/06/02 11:38:12;;;;;;;0.70;0.30;;;20.80;99.90;;;;;;5005937;28;21014;-69
2022/06/02 11:41:03;;;;;;;0.70;0.10;;;20.90;99.90;;;;;;5014996;28;20446;-67
2022/06/02 11:43:42;;;;;;;0.70;0.10;;;20.90;99.90;;;;;;5021890;28;20538;-70
2022/06/02 11:46:33;;;;;;;0.70;0.20;;;20.90;99.90;;;;;;5023188;28;20543;-71
2022/06/02 11:49:41;;;;;;;0.70;0.20;;;20.90;99.90;;;;;;5015110;28;20920;-68
2022/06/02 11:52:36;;;;;;;0.70;0.20;;;21.00;99.90;;;;;;5015858;28;20804;-68
2022/06/02 11:55:22;;;;;;;0.70;0.20;;;21.20;99.90;;;;;;5025553;28;20460;-68
2022/06/02 11:58:07;;;;;;;0.70;0.10;;;21.20;99.90;;;;;;5024036;28;20457;-70
2022/06/02 12:01:14;;;;;;;0.70;0.20;;;21.20;99.90;;;;;;5019967;28;20443;-68
2022/06/02 12:04:07;;;;;;;0.70;0.20;;;21.30;99.90;;;;;;4987663;28;20440;-70
2022/06/02 12:07:20;;;;;;;0.70;0.30;;;21.40;99.90;;;;;;5027827;28;20493;-70
2022/06/02 12:10:09;;;;;;;0.70;0.10;;;21.40;99.90;;;;;;5024640;28;20451;-69
2022/06/02 12:13:04;;;;;;;0.70;0.20;;;21.40;99.90;;;;;;5026581;28;20523;-70
2022/06/02 12:16:09;;;;;;;0.70;0.10;;;21.50;99.90;;;;;;5023836;28;20435;-69
2022/06/02 12:18:52;;;;;;;0.70;0.20;;;21.50;99.90;;;;;;5031885;28;20534;-67
2022/06/02 12:21:48;;;;;;;0.70;0.10;;;21.50;99.90;;;;;;5027408;28;20812;-69
2022/06/02 12:24:56;;;;;;;0.70;0.20;;;21.60;99.90;;;;;;5019250;28;20583;-67
2022/06/02 12:28:06;;;;;;;0.70;0.10;;;21.70;99.90;;;;;;5029003;28;20463;-70
2022/06/02 12:30:58;;;;;;;0.70;0.10;;;21.80;99.90;;;;;;5013879;28;20459;-69
2022/06/02 12:33:59;;;;;;;0.70;0.10;;;21.80;99.90;;;;;;5024857;28;20570;-68
2022/06/02 12:36:55;;;;;;;1.23;0.40;;;21.90;99.90;;;;;;5031468;28;20463;-68
2022/06/02 12:39:47;;;;;;;0.70;0.20;;;21.90;99.90;;;;;;5032709;28;20448;-67
2022/06/02 12:42:53;;;;;;;0.70;0.20;;;21.90;99.90;;;;;;5031764;28;20448;-68
2022/06/02 12:45:47;;;;;;;0.70;0.20;;;21.90;99.90;;;;;;5033068;28;20447;-68
2022/06/02 12:48:53;;;;;;;0.70;0.10;;;21.90;99.90;;;;;;5033057;28;20982;-66
2022/06/02 12:52:22;;;;;;;0.70;0.13;;;21.90;99.90;;;;;;5023948;28;20440;-67
2022/06/02 12:55:22;;;;;;;0.70;0.20;;;21.90;99.90;;;;;;4939571;28;20544;-68
2022/06/02 12:58:23;;;;;;;0.70;0.10;;;22.00;99.90;;;;;;4974712;28;20498;-68
2022/06/02 13:01:09;;;;;;;0.70;0.10;;;22.10;99.90;;;;;;5023791;28;20582;-70
2022/06/02 13:04:12;;;;;;;0.70;0.10;;;22.20;99.90;;;;;;5024748;28;20459;-67
2022/06/02 13:07:09;;;;;;;1.20;1.03;;;22.30;99.90;;;;;;5024957;28;21011;-68
2022/06/02 13:10:03;;;;;;;0.70;0.10;;;22.40;99.90;;;;;;5022610;28;20843;-67
2022/06/02 13:12:57;;;;;;;0.70;0.20;;;22.50;99.90;;;;;;5029316;28;20493;-71
2022/06/02 13:16:05;;;;;;;0.70;0.10;;;22.50;99.90;;;;;;5025667;28;20459;-70
2022/06/02 13:19:11;;;;;;;0.70;0.10;;;22.60;99.90;;;;;;5018367;28;20454;-67
2022/06/02 13:22:19;;;;;;;0.70;0.10;;;22.70;99.90;;;;;;5030343;28;20465;-68
2022/06/02 13:25:09;;;;;;;0.70;0.20;;;22.70;99.90;;;;;;5029588;28;20439;-70
2022/06/02 13:28:02;;;;;;;0.70;0.10;;;22.80;99.90;;;;;;5017498;28;20475;-69
2022/06/02 13:30:47;;;;;;;0.70;0.10;;;22.80;99.90;;;;;;4975898;28;20534;-71
2022/06/02 13:33:57;;;;;;;0.70;0.20;;;22.90;99.90;;;;;;5032393;28;20455;-69
2022/06/02 13:36:32;;;;;;;0.70;0.20;;;23.10;99.90;;;;;;5026702;28;20582;-71
2022/06/02 13:39:30;;;;;;;0.70;0.10;;;23.10;99.90;;;;;;5018421;28;20538;-69
2022/06/02 13:42:37;;;;;;;0.70;0.10;;;23.10;99.90;;;;;;5017660;28;20463;-70
2022/06/02 13:45:30;;;;;;;0.70;0.20;;;23.00;99.90;;;;;;5029873;28;20451;-69
2022/06/02 13:48:46;;;;;;;0.70;0.10;;;23.10;99.90;;;;;;5025121;28;20485;-68
2022/06/02 13:51:47;;;;;;;0.70;0.20;;;23.20;99.90;;;;;;4941852;29;20458;-69
2022/06/02 13:57:40;;;;;;;0.70;0.10;;;23.10;99.90;;;;;;5018206;28;20471;-69
2022/06/02 14:00:18;;;;;;;0.70;0.20;;;23.20;99.90;;;;;;5021872;28;20555;-72
2022/06/02 14:03:17;;;;;;;0.70;0.10;;;23.30;99.90;;;;;;5019503;28;20456;-69
2022/06/02 14:06:05;;;;;;;0.70;0.10;;;23.60;99.90;;;;;;5012613;28;20441;-70
2022/06/02 14:08:57;;;;;;;0.70;0.10;;;23.80;99.90;;;;;;5026330;28;20926;-70
2022/06/02 14:11:42;;;;;;;0.70;0.20;;;24.00;99.90;;;;;;5024763;28;20817;-71
2022/06/02 14:14:35;;;;;;;0.70;0.13;;;24.00;99.90;;;;;;5022446;28;20538;-66
2022/06/02 14:17:14;;;;;;;0.70;0.10;;;24.00;99.90;;;;;;5030519;28;20678;-67
2022/06/02 14:20:08;;;;;;;0.70;0.10;;;24.00;99.90;;;;;;5017927;28;20440;-65
2022/06/02 14:22:46;;;;;;;0.70;0.10;;;24.10;99.90;;;;;;5016315;28;20459;-66
2022/06/02 14:25:21;;;;;;;0.70;0.10;;;24.10;99.90;;;;;;5030708;28;20451;-67
2022/06/02 14:28:19;;;;;;;0.70;0.20;;;24.20;99.90;;;;;;5029728;28;20578;-66
2022/06/02 14:30:52;;;;;;;0.70;0.20;;;24.40;99.90;;;;;;5021154;28;20455;-67
2022/06/02 14:33:26;;;;;;;0.70;0.20;;;24.50;99.90;;;;;;5020501;28;20546;-68
2022/06/02 14:36:06;;;;;;;0.70;0.10;;;24.40;99.90;;;;;;5019627;28;20495;-66
2022/06/02 14:38:48;;;;;;;0.70;0.10;;;24.40;99.90;;;;;;5031511;28;20454;-70
2022/06/02 14:41:23;;;;;;;0.70;0.10;;;24.30;99.90;;;;;;5014938;28;20442;-72
2022/06/02 14:44:20;;;;;;;0.70;0.20;;;24.30;99.90;;;;;;5027899;28;20459;-67